Terminal Aerodrome Forecast
Issued by NWS Buffalo, NY

Home | Current Version | Previous Version | Text Only | Print | Product List | Glossary On
Versions: 1 2 3 4 5 6 7 8 9 10 11 12 13 14 15 16 17 18 19 20 21 22 23 24 25 26 27
000
FTUS41 KBUF 011852 AAB
TAFBUF
TAF AMD
KBUF 011852Z 0119/0218 24012G19KT P6SM VCTS BKN035CB
     FM012300 25011KT P6SM BKN035
     FM020500 VRB03KT P6SM BKN040
     FM020700 VRB03KT 5SM BR BKN250
      TEMPO 0207/0210 2SM BR
     FM021000 33004KT P6SM BKN250=

USA.gov is the U.S. government's official web portal to all federal, state and local government web resources and services.